createdAt,value
2018-10-17T00:02:06.108Z,90.81
2018-10-17T00:05:06.134Z,90.61
2018-10-17T00:08:06.044Z,89.75
2018-10-17T00:11:06.140Z,86.02
2018-10-17T00:14:05.977Z,83.50
2018-10-17T00:17:06.017Z,81.33
2018-10-17T00:20:05.911Z,80.58
2018-10-17T00:23:05.942Z,81.33
2018-10-17T00:26:05.867Z,82.21
2018-10-17T00:29:05.873Z,84.59
2018-10-17T00:32:05.848Z,87.37
2018-10-17T00:35:05.745Z,88.63
2018-10-17T00:38:05.745Z,87.88
2018-10-17T00:41:05.811Z,87.26
2018-10-17T00:44:05.635Z,84.64
2018-10-17T00:47:05.693Z,83.54
2018-10-17T00:50:05.574Z,81.06
2018-10-17T00:53:05.583Z,80.21
2018-10-17T00:56:05.512Z,80.04
2018-10-17T00:59:05.535Z,80.85
2018-10-17T01:02:05.439Z,79.63
2018-10-17T01:05:05.450Z,80.21
2018-10-17T01:08:05.379Z,80.35
2018-10-17T01:11:05.342Z,79.63
2018-10-17T01:14:05.365Z,80.59
2018-10-17T01:17:05.308Z,80.99
2018-10-17T01:20:05.828Z,81.81
2018-10-17T01:23:05.261Z,80.65
2018-10-17T01:26:05.234Z,79.60
2018-10-17T01:29:05.207Z,80.15
2018-10-17T01:32:05.124Z,79.84
2018-10-17T01:35:05.110Z,79.43
2018-10-17T01:38:05.069Z,78.68
2018-10-17T01:41:05.025Z,80.04
2018-10-17T01:44:04.981Z,80.76
2018-10-17T01:47:05.011Z,80.29
2018-10-17T01:50:04.907Z,79.74
2018-10-17T01:53:04.875Z,78.31
2018-10-17T01:56:04.852Z,77.60
2018-10-17T01:59:04.868Z,77.70
2018-10-17T02:02:04.761Z,78.41
2018-10-17T02:05:04.798Z,78.41
2018-10-17T02:08:04.815Z,78.28
2018-10-17T02:11:04.691Z,78.17
2018-10-17T02:14:04.681Z,78.48
2018-10-17T02:17:04.915Z,78.08
2018-10-17T02:20:04.578Z,78.21
2018-10-17T02:23:04.533Z,77.70
2018-10-17T02:26:04.504Z,79.43
2018-10-17T02:29:04.468Z,79.88
2018-10-17T02:32:04.452Z,79.68
2018-10-17T02:35:04.494Z,79.68
2018-10-17T02:38:04.365Z,80.29
2018-10-17T02:41:04.519Z,80.24
2018-10-17T02:44:04.359Z,80.69
2018-10-17T02:47:04.303Z,82.29
2018-10-17T02:50:04.235Z,83.76
2018-10-17T02:53:04.252Z,84.66
2018-10-17T02:56:04.157Z,86.53
2018-10-17T02:59:04.219Z,86.98
2018-10-17T03:02:04.119Z,88.35
2018-10-17T03:05:04.085Z,88.85
2018-10-17T03:08:04.040Z,89.41
2018-10-17T03:11:04.003Z,90.12
2018-10-17T03:14:04.035Z,90.43
2018-10-17T03:17:04.014Z,90.53
2018-10-17T03:20:03.904Z,90.74
2018-10-17T03:23:03.895Z,90.59
2018-10-17T03:26:03.874Z,90.70
2018-10-17T03:29:03.832Z,90.29
2018-10-17T03:32:03.766Z,90.33
2018-10-17T03:35:03.831Z,90.78
2018-10-17T03:38:03.711Z,91.60
2018-10-17T03:41:03.648Z,91.96
2018-10-17T03:44:03.629Z,91.91
2018-10-17T03:47:03.993Z,91.91
2018-10-17T03:50:03.644Z,92.56
2018-10-17T03:53:03.578Z,93.99
2018-10-17T03:56:03.501Z,93.79
2018-10-17T03:59:03.478Z,92.62
2018-10-17T04:02:03.422Z,90.90
2018-10-17T04:05:03.459Z,89.32
2018-10-17T04:08:03.360Z,88.61
2018-10-17T04:11:03.362Z,86.63
2018-10-17T04:14:03.292Z,86.53
2018-10-17T04:17:03.363Z,85.37
2018-10-17T04:20:04.040Z,86.29
2018-10-17T04:23:03.296Z,86.08
2018-10-17T04:26:03.161Z,86.29
2018-10-17T04:29:03.172Z,86.59
2018-10-17T04:32:03.569Z,86.73
2018-10-17T04:35:03.072Z,86.88
2018-10-17T04:38:03.037Z,88.79
2018-10-17T04:41:03.034Z,90.74
2018-10-17T04:44:02.955Z,90.59
2018-10-17T04:47:02.942Z,90.53
2018-10-17T04:50:02.906Z,90.43
2018-10-17T04:53:02.888Z,90.94
2018-10-17T04:56:02.901Z,90.58
2018-10-17T04:59:02.839Z,92.11
2018-10-17T05:02:02.755Z,92.52
2018-10-17T05:05:02.841Z,93.24
2018-10-17T05:08:02.705Z,92.11
2018-10-17T05:11:02.711Z,91.76
2018-10-17T05:14:02.679Z,91.96
2018-10-17T05:17:02.678Z,91.76
2018-10-17T05:20:02.566Z,91.46
2018-10-17T05:23:02.546Z,92.01
2018-10-17T05:26:02.482Z,93.07
2018-10-17T05:29:02.517Z,93.28
2018-10-17T05:32:02.413Z,93.93
2018-10-17T05:35:02.458Z,94.34
2018-10-17T05:38:02.405Z,94.60
2018-10-17T05:41:02.344Z,93.99
2018-10-17T05:44:03.446Z,93.99
2018-10-17T05:47:04.009Z,93.69
2018-10-17T05:50:02.435Z,94.51
2018-10-17T05:53:02.203Z,94.60
2018-10-17T05:56:02.205Z,94.10
2018-10-17T05:59:02.109Z,93.85
2018-10-17T06:02:02.207Z,92.58
2018-10-17T06:05:02.135Z,90.90
2018-10-17T06:08:02.018Z,90.59
2018-10-17T06:11:02.077Z,90.70
2018-10-17T06:14:01.942Z,90.04
2018-10-17T06:17:01.995Z,89.53
2018-10-17T06:20:01.878Z,89.84
2018-10-17T06:23:01.929Z,89.94
2018-10-17T06:26:01.807Z,89.59
2018-10-17T06:29:01.856Z,88.12
2018-10-17T06:32:01.743Z,87.00
2018-10-17T06:35:02.586Z,87.30
2018-10-17T06:38:01.670Z,87.26
2018-10-17T06:41:01.711Z,88.22
2018-10-17T06:44:01.749Z,88.63
2018-10-17T06:47:01.601Z,88.02
2018-10-17T06:50:01.539Z,87.26
2018-10-17T06:53:01.542Z,86.21
2018-10-17T06:56:01.496Z,87.12
2018-10-17T06:59:01.537Z,86.65
2018-10-17T07:02:01.559Z,86.21
2018-10-17T07:05:01.413Z,87.02
2018-10-17T07:08:01.442Z,86.16
2018-10-17T07:11:01.396Z,84.59
2018-10-17T07:14:02.403Z,83.98
2018-10-17T07:17:02.090Z,83.23
2018-10-17T07:20:01.228Z,83.20
2018-10-17T07:23:01.231Z,82.79
2018-10-17T07:26:01.220Z,81.49
2018-10-17T07:29:01.132Z,79.38
2018-10-17T07:32:01.118Z,74.37
2018-10-17T07:35:01.021Z,73.53
2018-10-17T07:38:01.286Z,73.39
2018-10-17T07:41:01.003Z,74.04
2018-10-17T07:44:01.525Z,72.34
2018-10-17T07:47:00.890Z,70.32
2018-10-17T07:50:00.917Z,68.74
2018-10-17T07:53:01.015Z,69.45
2018-10-17T07:56:00.837Z,66.93
2018-10-17T07:59:00.745Z,66.30
2018-10-17T08:02:00.735Z,64.02
2018-10-17T08:05:00.689Z,61.33
2018-10-17T08:08:00.661Z,58.18
2018-10-17T08:11:00.665Z,56.37
2018-10-17T08:14:00.621Z,54.92
2018-10-17T08:17:00.892Z,52.62
2018-10-17T08:20:00.534Z,52.49
2018-10-17T08:23:00.494Z,52.97
2018-10-17T08:26:00.466Z,49.33
2018-10-17T08:29:00.421Z,46.36
2018-10-17T08:32:00.441Z,49.21
2018-10-17T08:35:00.351Z,50.45
2018-10-17T08:38:00.824Z,50.82
2018-10-17T08:41:00.548Z,50.73
2018-10-17T08:44:00.350Z,50.95
2018-10-17T08:47:02.406Z,49.18
2018-10-17T08:50:00.322Z,48.94
2018-10-17T08:53:02.063Z,50.97
2018-10-17T08:56:01.044Z,54.49
2018-10-17T08:59:00.090Z,56.67
2018-10-17T09:02:00.079Z,56.15
2018-10-17T09:05:00.057Z,56.12
2018-10-17T09:08:00.040Z,55.44
2018-10-17T09:10:59.955Z,52.57
2018-10-17T09:14:00.026Z,52.47
2018-10-17T09:16:59.899Z,54.89
2018-10-17T09:20:00.231Z,52.67
2018-10-17T09:22:59.842Z,52.97
2018-10-17T09:25:59.798Z,51.45
2018-10-17T09:28:59.760Z,53.06
2018-10-17T09:31:59.750Z,54.16
2018-10-17T09:34:59.709Z,54.39
2018-10-17T09:37:59.932Z,53.84
2018-10-17T09:40:59.706Z,53.78
2018-10-17T09:43:59.635Z,50.85
2018-10-17T09:46:59.594Z,51.22
2018-10-17T09:49:59.535Z,49.58
2018-10-17T09:52:59.503Z,51.35
2018-10-17T09:55:59.474Z,49.38
2018-10-17T09:58:59.449Z,48.92
2018-10-17T10:01:59.438Z,49.38
2018-10-17T10:04:59.376Z,48.79
2018-10-17T10:07:59.517Z,49.68
2018-10-17T10:10:59.463Z,46.83
2018-10-17T10:13:59.291Z,49.26
2018-10-17T10:16:59.241Z,50.05
2018-10-17T10:19:59.206Z,50.95
2018-10-17T10:22:59.194Z,48.22
2018-10-17T10:25:59.201Z,48.94
2018-10-17T10:28:59.144Z,45.97
2018-10-17T10:32:00.987Z,46.12
2018-10-17T10:34:59.247Z,46.83
2018-10-17T10:37:59.026Z,48.49
2018-10-17T10:40:58.969Z,47.87
2018-10-17T10:43:58.972Z,46.78
2018-10-17T10:46:58.899Z,47.21
2018-10-17T10:49:58.962Z,47.06
2018-10-17T10:52:58.959Z,46.77
2018-10-17T10:55:58.849Z,47.13
2018-10-17T10:58:58.875Z,47.85
2018-10-17T11:01:58.825Z,48.25
2018-10-17T11:04:58.775Z,46.57
2018-10-17T11:07:58.742Z,44.62
2018-10-17T11:10:58.688Z,44.86
2018-10-17T11:13:58.735Z,46.57
2018-10-17T11:16:58.632Z,46.47
2018-10-17T11:19:58.578Z,47.73
2018-10-17T11:22:58.522Z,48.92
2018-10-17T11:25:58.509Z,46.03
2018-10-17T11:28:58.474Z,48.84
2018-10-17T11:31:58.494Z,46.72
2018-10-17T11:34:58.463Z,46.67
2018-10-17T11:38:03.631Z,49.14
2018-10-17T11:40:58.359Z,47.75
2018-10-17T11:43:58.300Z,47.92
2018-10-17T11:46:58.390Z,48.40
2018-10-17T11:49:58.254Z,47.26
2018-10-17T11:52:58.290Z,47.28
2018-10-17T11:55:58.233Z,48.27
2018-10-17T11:58:58.171Z,48.08
2018-10-17T12:01:58.172Z,47.16
2018-10-17T12:04:58.266Z,47.78
2018-10-17T12:07:58.048Z,47.90
2018-10-17T12:10:58.030Z,48.40
2018-10-17T12:13:57.993Z,48.74
2018-10-17T12:16:57.946Z,51.75
2018-10-17T12:19:58.022Z,53.76
2018-10-17T12:22:57.875Z,54.13
2018-10-17T12:25:57.852Z,52.37
2018-10-17T12:29:00.567Z,52.94
2018-10-17T12:31:58.832Z,52.17
2018-10-17T12:34:57.768Z,52.42
2018-10-17T12:37:57.779Z,52.81
2018-10-17T12:40:57.743Z,52.17
2018-10-17T12:43:57.712Z,52.69
2018-10-17T12:46:57.689Z,51.62
2018-10-17T12:49:57.711Z,51.10
2018-10-17T12:52:57.687Z,50.90
2018-10-17T12:55:57.573Z,49.07
2018-10-17T12:58:57.539Z,48.94
2018-10-17T13:01:57.483Z,50.06
2018-10-17T13:04:57.447Z,52.37
2018-10-17T13:07:57.405Z,54.50
2018-10-17T13:10:57.410Z,52.84
2018-10-17T13:13:57.329Z,51.10
2018-10-17T13:16:57.324Z,50.90
2018-10-17T13:19:57.281Z,52.74
2018-10-17T13:22:57.273Z,52.89
2018-10-17T13:25:57.206Z,52.72
2018-10-17T13:28:57.180Z,54.41
2018-10-17T13:31:57.168Z,52.39
2018-10-17T13:34:57.099Z,53.71
2018-10-17T13:37:57.107Z,52.69
2018-10-17T13:40:57.087Z,55.65
2018-10-17T13:43:57.583Z,52.74
2018-10-17T13:46:57.601Z,52.39
2018-10-17T13:49:56.943Z,52.69
2018-10-17T13:52:56.899Z,52.69
2018-10-17T13:55:56.892Z,54.31
2018-10-17T13:58:56.921Z,52.91
2018-10-17T14:01:56.820Z,54.56
2018-10-17T14:04:56.752Z,54.49
2018-10-17T14:07:56.772Z,54.43
2018-10-17T14:10:57.535Z,54.86
2018-10-17T14:13:56.658Z,53.94
2018-10-17T14:16:56.656Z,54.38
2018-10-17T14:19:56.601Z,54.88
2018-10-17T14:22:56.551Z,55.16
2018-10-17T14:25:58.100Z,55.16
2018-10-17T14:28:56.484Z,55.65
2018-10-17T14:31:56.491Z,56.30
2018-10-17T14:34:56.424Z,56.60
2018-10-17T14:37:56.511Z,56.70
2018-10-17T14:40:56.350Z,55.35
2018-10-17T14:43:56.343Z,56.35
2018-10-17T14:46:56.286Z,54.79
2018-10-17T14:49:56.263Z,55.18
2018-10-17T14:52:56.276Z,55.13
2018-10-17T14:55:56.262Z,56.13
2018-10-17T14:58:56.210Z,56.01
2018-10-17T15:01:56.133Z,57.23
2018-10-17T15:04:56.105Z,58.25
2018-10-17T15:07:56.100Z,58.88
2018-10-17T15:10:56.265Z,58.81
2018-10-17T15:13:55.993Z,58.64
2018-10-17T15:16:56.047Z,60.63
2018-10-17T15:19:55.959Z,60.96
2018-10-17T15:22:55.891Z,60.99
2018-10-17T15:25:55.892Z,61.40
2018-10-17T15:28:55.839Z,60.86
2018-10-17T15:31:55.833Z,63.06
2018-10-17T15:34:55.762Z,63.62
2018-10-17T15:37:56.061Z,65.19
2018-10-17T15:40:55.686Z,66.42
2018-10-17T15:43:55.667Z,67.25
2018-10-17T15:46:55.660Z,68.29
2018-10-17T15:49:55.592Z,68.52
2018-10-17T15:52:55.629Z,69.06
2018-10-17T15:55:55.598Z,69.85
2018-10-17T15:58:55.480Z,70.29
2018-10-17T16:01:55.533Z,71.23
2018-10-17T16:04:55.455Z,71.73
2018-10-17T16:07:55.436Z,72.77
2018-10-17T16:10:55.395Z,74.01
2018-10-17T16:13:55.358Z,74.01
2018-10-17T16:16:55.338Z,74.72
2018-10-17T16:19:55.487Z,75.26
2018-10-17T16:22:55.333Z,76.50
2018-10-17T16:25:55.278Z,76.74
2018-10-17T16:28:55.148Z,76.77
2018-10-17T16:31:55.133Z,77.38
2018-10-17T16:34:55.137Z,79.63
2018-10-17T16:37:55.167Z,79.57
2018-10-17T16:40:55.077Z,79.97
2018-10-17T16:43:55.071Z,80.72
2018-10-17T16:46:55.007Z,80.21
2018-10-17T16:49:55.041Z,80.65
2018-10-17T16:52:54.883Z,81.26
2018-10-17T16:55:54.904Z,81.76
2018-10-17T16:58:54.816Z,81.60
2018-10-17T17:01:54.863Z,82.01
2018-10-17T17:04:54.753Z,82.65
2018-10-17T17:07:54.732Z,83.05
2018-10-17T17:10:54.696Z,83.36
2018-10-17T17:13:54.677Z,83.80
2018-10-17T17:16:54.615Z,84.95
2018-10-17T17:19:54.604Z,86.21
2018-10-17T17:22:54.670Z,86.65
2018-10-17T17:25:54.534Z,87.36
2018-10-17T17:28:54.501Z,86.51
2018-10-17T17:31:54.507Z,85.56
2018-10-17T17:34:54.412Z,85.56
2018-10-17T17:37:54.393Z,85.36
2018-10-17T17:40:54.415Z,84.31
2018-10-17T17:43:54.374Z,84.41
2018-10-17T17:46:54.404Z,85.31
2018-10-17T17:49:54.274Z,85.25
2018-10-17T17:52:54.206Z,85.96
2018-10-17T17:55:54.212Z,87.12
2018-10-17T17:58:54.150Z,87.93
2018-10-17T18:01:54.193Z,88.88
2018-10-17T18:04:54.074Z,89.73
2018-10-17T18:07:54.254Z,90.14
2018-10-17T18:10:54.033Z,91.15
2018-10-17T18:13:54.028Z,91.20
2018-10-17T18:16:53.938Z,90.84
2018-10-17T18:19:53.920Z,91.46
2018-10-17T18:22:53.881Z,92.57
2018-10-17T18:25:53.909Z,91.86
2018-10-17T18:28:53.817Z,92.91
2018-10-17T18:31:53.824Z,93.22
2018-10-17T18:34:53.738Z,93.02
2018-10-17T18:37:53.774Z,93.12
2018-10-17T18:40:53.673Z,92.26
2018-10-17T18:43:53.713Z,93.22
2018-10-17T18:46:53.615Z,92.71
2018-10-17T18:49:53.588Z,93.26
2018-10-17T18:52:53.556Z,93.52
2018-10-17T18:55:53.700Z,93.67
2018-10-17T18:58:53.484Z,93.46
2018-10-17T19:01:53.473Z,94.73
2018-10-17T19:04:53.409Z,95.43
2018-10-17T19:07:53.815Z,96.19
2018-10-17T19:10:53.335Z,95.18
2018-10-17T19:13:53.356Z,96.15
2018-10-17T19:16:53.322Z,95.34
2018-10-17T19:19:53.262Z,95.48
2018-10-17T19:22:53.226Z,95.18
2018-10-17T19:25:53.179Z,95.12
2018-10-17T19:28:53.187Z,96.34
2018-10-17T19:31:53.196Z,96.75
2018-10-17T19:34:53.088Z,96.75
2018-10-17T19:37:53.339Z,97.05
2018-10-17T19:40:53.054Z,97.05
2018-10-17T19:43:52.986Z,96.64
2018-10-17T19:46:53.007Z,97.20
2018-10-17T19:49:52.985Z,97.55
2018-10-17T19:52:52.873Z,97.69
2018-10-17T19:55:53.006Z,98.41
2018-10-17T19:58:52.855Z,98.41
2018-10-17T20:01:52.791Z,98.71
2018-10-17T20:04:52.823Z,98.66
2018-10-17T20:07:52.789Z,98.14
2018-10-17T20:10:52.679Z,98.66
2018-10-17T20:13:52.643Z,98.60
2018-10-17T20:16:52.602Z,99.06
2018-10-17T20:19:52.638Z,99.67
2018-10-17T20:22:52.540Z,99.47
2018-10-17T20:25:52.572Z,99.16
2018-10-17T20:28:52.467Z,99.52
2018-10-17T20:31:53.021Z,99.99
2018-10-17T20:34:52.424Z,99.99
2018-10-17T20:37:52.575Z,99.72
2018-10-17T20:40:52.355Z,99.99
2018-10-17T20:43:52.340Z,99.82
2018-10-17T20:46:52.253Z,99.82
2018-10-17T20:49:52.363Z,99.97
2018-10-17T20:52:52.209Z,99.87
2018-10-17T20:55:52.236Z,99.77
2018-10-17T20:58:52.130Z,99.99
2018-10-17T21:01:52.124Z,99.99
2018-10-17T21:04:52.133Z,99.99
2018-10-17T21:07:52.109Z,99.82
2018-10-17T21:10:52.002Z,99.82
2018-10-17T21:13:51.990Z,99.77
2018-10-17T21:16:51.930Z,99.77
2018-10-17T21:19:51.924Z,99.16
2018-10-17T21:22:51.887Z,97.49
2018-10-17T21:25:51.866Z,97.55
2018-10-17T21:28:51.866Z,97.80
2018-10-17T21:31:51.833Z,97.60
2018-10-17T21:34:51.727Z,98.41
2018-10-17T21:37:51.957Z,98.10
2018-10-17T21:40:51.670Z,97.80
2018-10-17T21:43:51.656Z,97.49
2018-10-17T21:46:51.595Z,98.10
2018-10-17T21:49:51.580Z,97.89
2018-10-17T21:52:51.524Z,98.30
2018-10-17T21:55:51.564Z,98.75
2018-10-17T21:58:51.453Z,98.45
2018-10-17T22:01:51.509Z,98.96
2018-10-17T22:04:51.433Z,98.55
2018-10-17T22:07:51.404Z,99.27
2018-10-17T22:10:51.312Z,99.06
2018-10-17T22:13:51.360Z,98.66
2018-10-17T22:16:51.259Z,99.82
2018-10-17T22:19:51.300Z,99.72
2018-10-17T22:22:51.195Z,99.72
2018-10-17T22:25:51.184Z,99.87
2018-10-17T22:28:51.112Z,99.97
2018-10-17T22:31:51.208Z,99.99
2018-10-17T22:34:51.055Z,99.99
2018-10-17T22:37:51.088Z,99.99
2018-10-17T22:40:50.990Z,99.99
2018-10-17T22:43:51.023Z,99.99
2018-10-17T22:46:50.930Z,99.99
2018-10-17T22:49:50.891Z,99.99
2018-10-17T22:52:50.899Z,99.99
2018-10-17T22:55:50.834Z,99.99
2018-10-17T22:58:50.838Z,99.99
2018-10-17T23:01:50.777Z,99.99
2018-10-17T23:04:50.716Z,99.99
2018-10-17T23:07:50.777Z,99.99
2018-10-17T23:10:50.658Z,99.99
2018-10-17T23:13:50.641Z,99.99
2018-10-17T23:16:50.584Z,99.99
2018-10-17T23:19:50.588Z,99.99
2018-10-17T23:22:50.517Z,99.99
2018-10-17T23:25:50.500Z,99.99
2018-10-17T23:28:50.443Z,99.99
2018-10-17T23:31:50.476Z,99.99
2018-10-17T23:34:50.387Z,99.99
2018-10-17T23:37:50.708Z,99.99
2018-10-17T23:40:50.341Z,99.99
2018-10-17T23:43:50.318Z,99.99
2018-10-17T23:46:50.296Z,99.99
2018-10-17T23:49:50.238Z,99.99
2018-10-17T23:52:50.189Z,99.99
2018-10-17T23:55:50.159Z,99.99
2018-10-17T23:58:50.158Z,99.99
